sensor_id;sensor_type;location;lat;lon;timestamp;pressure;altitude;pressure_sealevel;temperature;humidity
9889;BME280;4983;42.112;24.738;2023-08-08T00:00:55;99225.31;;;23.37;74.22
9889;BME280;4983;42.112;24.738;2023-08-08T00:03:23;99224.16;;;23.44;73.68
9889;BME280;4983;42.112;24.738;2023-08-08T00:05:50;99217.25;;;23.35;73.76
9889;BME280;4983;42.112;24.738;2023-08-08T00:08:17;99224.97;;;23.33;74.42
9889;BME280;4983;42.112;24.738;2023-08-08T00:10:44;99228.03;;;23.25;74.67
9889;BME280;4983;42.112;24.738;2023-08-08T00:13:11;99227.22;;;23.25;74.71
9889;BME280;4983;42.112;24.738;2023-08-08T00:15:39;99234.59;;;23.13;74.99
9889;BME280;4983;42.112;24.738;2023-08-08T00:18:06;99231.56;;;23.14;75.71
9889;BME280;4983;42.112;24.738;2023-08-08T00:20:33;99226.13;;;23.26;75.29
9889;BME280;4983;42.112;24.738;2023-08-08T00:23:00;99222.84;;;23.17;74.69
9889;BME280;4983;42.112;24.738;2023-08-08T00:25:27;99235.00;;;23.16;75.36
9889;BME280;4983;42.112;24.738;2023-08-08T00:27:54;99239.78;;;23.21;76.38
9889;BME280;4983;42.112;24.738;2023-08-08T00:30:21;99241.97;;;23.19;76.57
9889;BME280;4983;42.112;24.738;2023-08-08T00:32:50;99238.25;;;23.25;76.22
9889;BME280;4983;42.112;24.738;2023-08-08T00:35:17;99248.09;;;23.21;76.49
9889;BME280;4983;42.112;24.738;2023-08-08T00:37:44;99243.03;;;23.18;77.43
9889;BME280;4983;42.112;24.738;2023-08-08T00:40:11;99247.22;;;23.20;77.70
9889;BME280;4983;42.112;24.738;2023-08-08T00:42:38;99251.56;;;23.16;78.09
9889;BME280;4983;42.112;24.738;2023-08-08T00:45:06;99246.78;;;23.23;78.18
9889;BME280;4983;42.112;24.738;2023-08-08T00:47:34;99243.53;;;23.26;78.47
9889;BME280;4983;42.112;24.738;2023-08-08T00:50:04;99251.44;;;23.23;79.60
9889;BME280;4983;42.112;24.738;2023-08-08T00:52:31;99246.34;;;23.38;79.32
9889;BME280;4983;42.112;24.738;2023-08-08T00:54:59;99276.81;;;23.13;79.95
9889;BME280;4983;42.112;24.738;2023-08-08T00:57:27;99250.06;;;23.14;80.75
9889;BME280;4983;42.112;24.738;2023-08-08T00:59:55;99254.91;;;23.18;80.51
9889;BME280;4983;42.112;24.738;2023-08-08T01:02:23;99247.31;;;23.14;81.21
9889;BME280;4983;42.112;24.738;2023-08-08T01:04:51;99243.81;;;23.07;81.16
9889;BME280;4983;42.112;24.738;2023-08-08T01:07:33;99246.94;;;23.10;81.16
9889;BME280;4983;42.112;24.738;2023-08-08T01:10:06;99253.09;;;22.94;81.88
9889;BME280;4983;42.112;24.738;2023-08-08T01:12:39;99255.41;;;22.97;82.19
9889;BME280;4983;42.112;24.738;2023-08-08T01:15:07;99259.09;;;22.91;83.09
9889;BME280;4983;42.112;24.738;2023-08-08T01:17:35;99256.09;;;22.93;83.27
9889;BME280;4983;42.112;24.738;2023-08-08T01:20:04;99255.03;;;22.76;83.40
9889;BME280;4983;42.112;24.738;2023-08-08T01:22:37;99253.84;;;22.72;82.41
9889;BME280;4983;42.112;24.738;2023-08-08T01:25:08;99265.50;;;22.56;82.84
9889;BME280;4983;42.112;24.738;2023-08-08T01:27:36;99271.22;;;22.54;82.68
9889;BME280;4983;42.112;24.738;2023-08-08T01:30:04;99268.84;;;22.58;82.49
9889;BME280;4983;42.112;24.738;2023-08-08T01:32:31;99267.34;;;22.44;82.69
9889;BME280;4983;42.112;24.738;2023-08-08T01:34:58;99275.13;;;22.47;82.74
9889;BME280;4983;42.112;24.738;2023-08-08T01:37:30;99277.81;;;22.53;83.11
9889;BME280;4983;42.112;24.738;2023-08-08T01:40:00;99298.16;;;22.59;83.34
9889;BME280;4983;42.112;24.738;2023-08-08T01:42:29;99295.84;;;22.56;83.65
9889;BME280;4983;42.112;24.738;2023-08-08T01:44:57;99281.13;;;22.44;83.60
9889;BME280;4983;42.112;24.738;2023-08-08T01:47:25;99290.13;;;22.33;83.91
9889;BME280;4983;42.112;24.738;2023-08-08T01:49:52;99290.72;;;22.35;84.26
9889;BME280;4983;42.112;24.738;2023-08-08T01:52:20;99299.31;;;22.27;85.10
9889;BME280;4983;42.112;24.738;2023-08-08T01:54:48;99288.28;;;22.27;84.72
9889;BME280;4983;42.112;24.738;2023-08-08T01:57:16;99293.31;;;22.12;85.75
9889;BME280;4983;42.112;24.738;2023-08-08T01:59:45;99291.38;;;22.12;85.83
9889;BME280;4983;42.112;24.738;2023-08-08T02:02:12;99307.63;;;22.20;85.97
9889;BME280;4983;42.112;24.738;2023-08-08T02:04:40;99301.66;;;22.23;85.36
9889;BME280;4983;42.112;24.738;2023-08-08T02:07:08;99295.59;;;22.15;85.63
9889;BME280;4983;42.112;24.738;2023-08-08T02:09:34;99302.03;;;22.09;85.94
9889;BME280;4983;42.112;24.738;2023-08-08T02:12:02;99313.81;;;22.16;86.12
9889;BME280;4983;42.112;24.738;2023-08-08T02:14:29;99316.53;;;21.98;86.46
9889;BME280;4983;42.112;24.738;2023-08-08T02:16:57;99312.44;;;22.07;86.28
9889;BME280;4983;42.112;24.738;2023-08-08T02:19:24;99326.44;;;22.05;86.37
9889;BME280;4983;42.112;24.738;2023-08-08T02:21:51;99327.06;;;21.83;87.79
9889;BME280;4983;42.112;24.738;2023-08-08T02:24:18;99323.84;;;21.86;87.52
9889;BME280;4983;42.112;24.738;2023-08-08T02:26:44;99327.78;;;21.65;88.50
9889;BME280;4983;42.112;24.738;2023-08-08T02:29:13;99337.22;;;21.51;88.57
9889;BME280;4983;42.112;24.738;2023-08-08T02:31:40;99340.81;;;21.52;88.43
9889;BME280;4983;42.112;24.738;2023-08-08T02:34:09;99345.28;;;21.53;88.68
9889;BME280;4983;42.112;24.738;2023-08-08T02:36:35;99337.63;;;21.55;88.51
9889;BME280;4983;42.112;24.738;2023-08-08T02:39:03;99344.03;;;21.49;89.57
9889;BME280;4983;42.112;24.738;2023-08-08T02:41:29;99347.88;;;21.41;89.71
9889;BME280;4983;42.112;24.738;2023-08-08T02:43:56;99354.28;;;21.29;89.84
9889;BME280;4983;42.112;24.738;2023-08-08T02:46:23;99363.84;;;21.27;90.62
9889;BME280;4983;42.112;24.738;2023-08-08T02:48:51;99354.13;;;21.24;90.75
9889;BME280;4983;42.112;24.738;2023-08-08T02:51:19;99363.19;;;21.31;90.67
9889;BME280;4983;42.112;24.738;2023-08-08T02:53:46;99365.94;;;21.31;91.24
9889;BME280;4983;42.112;24.738;2023-08-08T02:56:13;99362.19;;;21.19;91.85
9889;BME280;4983;42.112;24.738;2023-08-08T02:58:40;99364.09;;;21.18;92.54
9889;BME280;4983;42.112;24.738;2023-08-08T03:01:07;99368.53;;;21.19;92.06
9889;BME280;4983;42.112;24.738;2023-08-08T03:03:34;99373.84;;;21.14;92.63
9889;BME280;4983;42.112;24.738;2023-08-08T03:06:01;99373.91;;;21.02;93.77
9889;BME280;4983;42.112;24.738;2023-08-08T03:08:29;99381.56;;;20.93;94.38
9889;BME280;4983;42.112;24.738;2023-08-08T03:10:56;99391.06;;;21.04;94.35
9889;BME280;4983;42.112;24.738;2023-08-08T03:13:23;99396.97;;;21.07;94.58
9889;BME280;4983;42.112;24.738;2023-08-08T03:15:50;99396.16;;;20.94;95.81
9889;BME280;4983;42.112;24.738;2023-08-08T03:18:17;99406.28;;;21.06;95.61
9889;BME280;4983;42.112;24.738;2023-08-08T03:20:44;99406.09;;;20.95;96.84
9889;BME280;4983;42.112;24.738;2023-08-08T03:23:11;99408.47;;;20.78;97.52
9889;BME280;4983;42.112;24.738;2023-08-08T03:25:40;99417.78;;;20.77;98.19
9889;BME280;4983;42.112;24.738;2023-08-08T03:28:08;99422.88;;;20.74;99.05
9889;BME280;4983;42.112;24.738;2023-08-08T03:30:36;99425.63;;;20.74;98.97
9889;BME280;4983;42.112;24.738;2023-08-08T03:33:03;99432.19;;;20.66;99.97
9889;BME280;4983;42.112;24.738;2023-08-08T03:35:31;99437.88;;;20.58;100.00
9889;BME280;4983;42.112;24.738;2023-08-08T03:37:58;99438.09;;;20.63;100.00
9889;BME280;4983;42.112;24.738;2023-08-08T03:40:24;99444.88;;;20.67;100.00
9889;BME280;4983;42.112;24.738;2023-08-08T03:42:53;99456.69;;;20.67;100.00
9889;BME280;4983;42.112;24.738;2023-08-08T03:45:20;99457.56;;;20.55;100.00
9889;BME280;4983;42.112;24.738;2023-08-08T03:47:47;99458.41;;;20.62;100.00
9889;BME280;4983;42.112;24.738;2023-08-08T03:50:14;99452.28;;;20.41;100.00
9889;BME280;4983;42.112;24.738;2023-08-08T03:52:41;99465.81;;;20.55;100.00
9889;BME280;4983;42.112;24.738;2023-08-08T03:55:08;99474.91;;;20.62;100.00
9889;BME280;4983;42.112;24.738;2023-08-08T03:57:35;99482.72;;;20.52;100.00
9889;BME280;4983;42.112;24.738;2023-08-08T04:00:04;99484.00;;;20.37;100.00
9889;BME280;4983;42.112;24.738;2023-08-08T04:02:34;99500.50;;;20.24;100.00
9889;BME280;4983;42.112;24.738;2023-08-08T04:05:01;99503.88;;;20.32;100.00
9889;BME280;4983;42.112;24.738;2023-08-08T04:07:28;99506.84;;;20.31;100.00
9889;BME280;4983;42.112;24.738;2023-08-08T04:09:55;99507.22;;;20.15;100.00
9889;BME280;4983;42.112;24.738;2023-08-08T04:12:22;99523.25;;;20.05;100.00
9889;BME280;4983;42.112;24.738;2023-08-08T04:14:49;99522.59;;;20.03;100.00
9889;BME280;4983;42.112;24.738;2023-08-08T04:17:17;99521.53;;;19.97;100.00
9889;BME280;4983;42.112;24.738;2023-08-08T04:19:45;99533.53;;;19.77;100.00
9889;BME280;4983;42.112;24.738;2023-08-08T04:22:12;99525.31;;;19.83;100.00
9889;BME280;4983;42.112;24.738;2023-08-08T04:24:39;99540.09;;;19.35;100.00
9889;BME280;4983;42.112;24.738;2023-08-08T04:27:07;99551.66;;;19.24;100.00
9889;BME280;4983;42.112;24.738;2023-08-08T04:29:33;99543.19;;;18.98;100.00
9889;BME280;4983;42.112;24.738;2023-08-08T04:32:00;99543.38;;;18.90;100.00
9889;BME280;4983;42.112;24.738;2023-08-08T04:34:29;99537.00;;;18.83;100.00
9889;BME280;4983;42.112;24.738;2023-08-08T04:36:56;99543.31;;;18.84;100.00
9889;BME280;4983;42.112;24.738;2023-08-08T04:39:23;99536.50;;;18.73;100.00
9889;BME280;4983;42.112;24.738;2023-08-08T04:41:49;99534.78;;;18.72;100.00
9889;BME280;4983;42.112;24.738;2023-08-08T04:44:16;99535.78;;;18.92;100.00
9889;BME280;4983;42.112;24.738;2023-08-08T04:46:43;99552.88;;;18.67;100.00
9889;BME280;4983;42.112;24.738;2023-08-08T04:49:10;99557.41;;;18.53;100.00
9889;BME280;4983;42.112;24.738;2023-08-08T04:51:39;99563.28;;;18.71;100.00
9889;BME280;4983;42.112;24.738;2023-08-08T04:54:05;99563.53;;;18.55;100.00
9889;BME280;4983;42.112;24.738;2023-08-08T04:56:32;99584.59;;;18.55;100.00
9889;BME280;4983;42.112;24.738;2023-08-08T04:59:00;99583.09;;;18.52;100.00
9889;BME280;4983;42.112;24.738;2023-08-08T05:01:27;99587.72;;;18.31;100.00
9889;BME280;4983;42.112;24.738;2023-08-08T05:03:54;99592.72;;;18.42;100.00
9889;BME280;4983;42.112;24.738;2023-08-08T05:06:22;99602.06;;;18.47;100.00
9889;BME280;4983;42.112;24.738;2023-08-08T05:08:51;99605.78;;;18.40;100.00
9889;BME280;4983;42.112;24.738;2023-08-08T05:11:19;99605.19;;;18.44;100.00
9889;BME280;4983;42.112;24.738;2023-08-08T05:13:46;99611.91;;;18.42;100.00
9889;BME280;4983;42.112;24.738;2023-08-08T05:16:13;99618.94;;;18.72;100.00
9889;BME280;4983;42.112;24.738;2023-08-08T05:18:40;99627.28;;;18.85;100.00
9889;BME280;4983;42.112;24.738;2023-08-08T05:21:09;99637.72;;;18.96;100.00
9889;BME280;4983;42.112;24.738;2023-08-08T05:23:37;99641.41;;;18.82;100.00
9889;BME280;4983;42.112;24.738;2023-08-08T05:26:05;99646.34;;;18.93;100.00
9889;BME280;4983;42.112;24.738;2023-08-08T05:28:32;99644.19;;;18.88;100.00
9889;BME280;4983;42.112;24.738;2023-08-08T05:30:59;99659.09;;;18.79;100.00
9889;BME280;4983;42.112;24.738;2023-08-08T05:33:26;99652.38;;;18.82;100.00
9889;BME280;4983;42.112;24.738;2023-08-08T05:35:53;99661.97;;;18.71;100.00
9889;BME280;4983;42.112;24.738;2023-08-08T05:38:20;99664.03;;;18.69;100.00
9889;BME280;4983;42.112;24.738;2023-08-08T05:40:47;99675.59;;;18.65;100.00
9889;BME280;4983;42.112;24.738;2023-08-08T05:43:17;99676.25;;;18.46;100.00
9889;BME280;4983;42.112;24.738;2023-08-08T05:45:44;99680.81;;;18.39;100.00
9889;BME280;4983;42.112;24.738;2023-08-08T05:48:11;99675.41;;;18.31;100.00
9889;BME280;4983;42.112;24.738;2023-08-08T05:50:38;99683.75;;;18.37;100.00
9889;BME280;4983;42.112;24.738;2023-08-08T05:53:06;99690.00;;;18.31;100.00
9889;BME280;4983;42.112;24.738;2023-08-08T05:55:33;99697.44;;;18.23;100.00
9889;BME280;4983;42.112;24.738;2023-08-08T05:58:00;99695.47;;;18.17;100.00
9889;BME280;4983;42.112;24.738;2023-08-08T06:00:28;99707.00;;;18.12;100.00
9889;BME280;4983;42.112;24.738;2023-08-08T06:02:55;99695.19;;;18.12;100.00
9889;BME280;4983;42.112;24.738;2023-08-08T06:05:22;99696.41;;;18.24;100.00
9889;BME280;4983;42.112;24.738;2023-08-08T06:07:50;99697.09;;;18.61;100.00
9889;BME280;4983;42.112;24.738;2023-08-08T06:10:17;99697.84;;;18.76;100.00
9889;BME280;4983;42.112;24.738;2023-08-08T06:12:44;99703.88;;;18.86;100.00
9889;BME280;4983;42.112;24.738;2023-08-08T06:15:11;99698.47;;;18.93;100.00
9889;BME280;4983;42.112;24.738;2023-08-08T06:17:39;99696.06;;;18.83;100.00
9889;BME280;4983;42.112;24.738;2023-08-08T06:20:07;99707.03;;;18.83;100.00
9889;BME280;4983;42.112;24.738;2023-08-08T06:22:35;99701.00;;;19.15;100.00
9889;BME280;4983;42.112;24.738;2023-08-08T06:25:02;99736.75;;;19.22;100.00
9889;BME280;4983;42.112;24.738;2023-08-08T06:27:29;99715.34;;;19.17;100.00
9889;BME280;4983;42.112;24.738;2023-08-08T06:29:56;99712.63;;;18.96;100.00
9889;BME280;4983;42.112;24.738;2023-08-08T06:32:24;99705.47;;;18.95;100.00
9889;BME280;4983;42.112;24.738;2023-08-08T06:34:52;99705.44;;;19.37;100.00
9889;BME280;4983;42.112;24.738;2023-08-08T06:37:20;99705.63;;;19.36;100.00
9889;BME280;4983;42.112;24.738;2023-08-08T06:39:47;99699.69;;;19.60;100.00
9889;BME280;4983;42.112;24.738;2023-08-08T06:42:14;99696.09;;;19.59;100.00
9889;BME280;4983;42.112;24.738;2023-08-08T06:44:42;99698.00;;;19.59;100.00
9889;BME280;4983;42.112;24.738;2023-08-08T06:47:09;99686.53;;;19.83;100.00
9889;BME280;4983;42.112;24.738;2023-08-08T06:49:36;99688.13;;;20.05;100.00
9889;BME280;4983;42.112;24.738;2023-08-08T06:52:06;99686.78;;;19.88;100.00
9889;BME280;4983;42.112;24.738;2023-08-08T06:54:33;99691.59;;;20.13;100.00
9889;BME280;4983;42.112;24.738;2023-08-08T06:57:00;99690.88;;;20.05;100.00
9889;BME280;4983;42.112;24.738;2023-08-08T06:59:28;99697.19;;;20.39;100.00
9889;BME280;4983;42.112;24.738;2023-08-08T07:01:54;99693.34;;;20.27;100.00
9889;BME280;4983;42.112;24.738;2023-08-08T07:04:23;99698.06;;;20.46;100.00
9889;BME280;4983;42.112;24.738;2023-08-08T07:06:50;99693.81;;;20.44;100.00
9889;BME280;4983;42.112;24.738;2023-08-08T07:09:18;99700.63;;;20.61;100.00
9889;BME280;4983;42.112;24.738;2023-08-08T07:11:45;99695.25;;;20.33;100.00
9889;BME280;4983;42.112;24.738;2023-08-08T07:14:12;99695.38;;;20.66;100.00
9889;BME280;4983;42.112;24.738;2023-08-08T07:16:39;99693.25;;;20.67;100.00
9889;BME280;4983;42.112;24.738;2023-08-08T07:19:06;99701.59;;;20.94;100.00
9889;BME280;4983;42.112;24.738;2023-08-08T07:21:33;99702.06;;;21.04;100.00
9889;BME280;4983;42.112;24.738;2023-08-08T07:24:00;99703.94;;;20.90;100.00
9889;BME280;4983;42.112;24.738;2023-08-08T07:26:29;99714.13;;;21.22;100.00
9889;BME280;4983;42.112;24.738;2023-08-08T07:28:56;99715.81;;;21.17;100.00
9889;BME280;4983;42.112;24.738;2023-08-08T07:31:23;99725.56;;;21.51;100.00
9889;BME280;4983;42.112;24.738;2023-08-08T07:33:50;99706.72;;;21.10;100.00
9889;BME280;4983;42.112;24.738;2023-08-08T07:36:17;99721.09;;;21.37;100.00
9889;BME280;4983;42.112;24.738;2023-08-08T07:38:44;99714.31;;;21.08;100.00
9889;BME280;4983;42.112;24.738;2023-08-08T07:41:11;99719.63;;;21.22;100.00
9889;BME280;4983;42.112;24.738;2023-08-08T07:43:40;99717.28;;;21.13;100.00
9889;BME280;4983;42.112;24.738;2023-08-08T07:46:07;99724.91;;;21.17;100.00
9889;BME280;4983;42.112;24.738;2023-08-08T07:48:34;99724.06;;;21.10;100.00
9889;BME280;4983;42.112;24.738;2023-08-08T07:51:01;99720.38;;;20.83;100.00
9889;BME280;4983;42.112;24.738;2023-08-08T07:53:28;99729.91;;;20.75;100.00
9889;BME280;4983;42.112;24.738;2023-08-08T07:55:55;99724.41;;;20.75;100.00
9889;BME280;4983;42.112;24.738;2023-08-08T07:58:22;99731.16;;;20.78;100.00
9889;BME280;4983;42.112;24.738;2023-08-08T08:00:53;99729.75;;;21.08;100.00
9889;BME280;4983;42.112;24.738;2023-08-08T08:03:20;99727.88;;;21.09;100.00
9889;BME280;4983;42.112;24.738;2023-08-08T08:05:47;99727.25;;;21.07;100.00
9889;BME280;4983;42.112;24.738;2023-08-08T08:08:14;99738.72;;;21.43;100.00
9889;BME280;4983;42.112;24.738;2023-08-08T08:10:41;99727.91;;;21.48;100.00
9889;BME280;4983;42.112;24.738;2023-08-08T08:13:09;99717.31;;;21.19;100.00
9889;BME280;4983;42.112;24.738;2023-08-08T08:15:37;99728.72;;;21.29;100.00
9889;BME280;4983;42.112;24.738;2023-08-08T08:18:05;99728.97;;;21.27;100.00
9889;BME280;4983;42.112;24.738;2023-08-08T08:20:32;99728.09;;;21.14;100.00
9889;BME280;4983;42.112;24.738;2023-08-08T08:22:59;99724.50;;;21.07;100.00
9889;BME280;4983;42.112;24.738;2023-08-08T08:25:26;99722.81;;;21.19;100.00
9889;BME280;4983;42.112;24.738;2023-08-08T08:27:53;99710.50;;;21.08;100.00
9889;BME280;4983;42.112;24.738;2023-08-08T08:30:20;99727.47;;;21.18;100.00
9889;BME280;4983;42.112;24.738;2023-08-08T08:32:49;99715.16;;;21.14;99.06
9889;BME280;4983;42.112;24.738;2023-08-08T08:35:18;99725.56;;;21.45;100.00
9889;BME280;4983;42.112;24.738;2023-08-08T08:37:48;99714.56;;;21.71;99.13
9889;BME280;4983;42.112;24.738;2023-08-08T08:40:15;99713.91;;;21.56;95.59
9889;BME280;4983;42.112;24.738;2023-08-08T08:42:43;99699.06;;;21.63;95.30
9889;BME280;4983;42.112;24.738;2023-08-08T08:45:12;99707.34;;;21.76;96.26
9889;BME280;4983;42.112;24.738;2023-08-08T08:47:40;99695.38;;;22.08;91.24
9889;BME280;4983;42.112;24.738;2023-08-08T08:50:09;99714.22;;;22.24;94.86
9889;BME280;4983;42.112;24.738;2023-08-08T08:52:37;99707.16;;;22.48;94.07
9889;BME280;4983;42.112;24.738;2023-08-08T08:55:06;99672.66;;;22.70;87.56
9889;BME280;4983;42.112;24.738;2023-08-08T08:57:34;99688.66;;;22.92;88.70
9889;BME280;4983;42.112;24.738;2023-08-08T09:00:05;99694.41;;;23.22;90.31
9889;BME280;4983;42.112;24.738;2023-08-08T09:02:34;99668.22;;;23.31;85.56
9889;BME280;4983;42.112;24.738;2023-08-08T09:05:03;99660.09;;;23.36;83.72
9889;BME280;4983;42.112;24.738;2023-08-08T09:07:32;99683.44;;;23.09;87.61
9889;BME280;4983;42.112;24.738;2023-08-08T09:10:01;99667.06;;;23.07;84.60
9889;BME280;4983;42.112;24.738;2023-08-08T09:12:29;99657.19;;;23.24;83.29
9889;BME280;4983;42.112;24.738;2023-08-08T09:14:57;99668.19;;;23.73;83.51
9889;BME280;4983;42.112;24.738;2023-08-08T09:17:25;99639.72;;;23.97;79.50
9889;BME280;4983;42.112;24.738;2023-08-08T09:19:54;99637.06;;;24.20;78.11
9889;BME280;4983;42.112;24.738;2023-08-08T09:22:21;99635.31;;;23.90;79.55
9889;BME280;4983;42.112;24.738;2023-08-08T09:24:50;99636.09;;;23.97;79.69
9889;BME280;4983;42.112;24.738;2023-08-08T09:27:19;99630.84;;;24.54;77.56
9889;BME280;4983;42.112;24.738;2023-08-08T09:29:46;99601.28;;;24.55;75.93
9889;BME280;4983;42.112;24.738;2023-08-08T09:32:13;99598.47;;;24.73;71.93
9889;BME280;4983;42.112;24.738;2023-08-08T09:34:41;99602.63;;;24.93;74.79
9889;BME280;4983;42.112;24.738;2023-08-08T09:37:09;99586.03;;;24.64;69.95
9889;BME280;4983;42.112;24.738;2023-08-08T09:39:37;99614.41;;;24.89;74.96
9889;BME280;4983;42.112;24.738;2023-08-08T09:42:06;99576.00;;;25.04;66.60
9889;BME280;4983;42.112;24.738;2023-08-08T09:44:35;99583.50;;;25.03;70.18
9889;BME280;4983;42.112;24.738;2023-08-08T09:47:02;99581.34;;;25.40;68.15
9889;BME280;4983;42.112;24.738;2023-08-08T09:49:31;99549.75;;;25.64;65.17
9889;BME280;4983;42.112;24.738;2023-08-08T09:52:00;99530.63;;;25.28;59.12
9889;BME280;4983;42.112;24.738;2023-08-08T09:54:28;99564.75;;;25.51;66.48
9889;BME280;4983;42.112;24.738;2023-08-08T09:56:58;99567.47;;;26.25;68.15
9889;BME280;4983;42.112;24.738;2023-08-08T09:59:26;99540.13;;;26.45;62.70
9889;BME280;4983;42.112;24.738;2023-08-08T10:01:56;99533.25;;;25.69;60.63
9889;BME280;4983;42.112;24.738;2023-08-08T10:04:23;99574.97;;;25.62;65.09
9889;BME280;4983;42.112;24.738;2023-08-08T10:06:51;99540.63;;;25.63;62.76
9889;BME280;4983;42.112;24.738;2023-08-08T10:09:18;99540.09;;;25.78;58.50
9889;BME280;4983;42.112;24.738;2023-08-08T10:11:47;99530.56;;;25.85;60.59
9889;BME280;4983;42.112;24.738;2023-08-08T10:14:15;99530.06;;;25.88;57.85
9889;BME280;4983;42.112;24.738;2023-08-08T10:16:42;99523.50;;;26.34;54.92
9889;BME280;4983;42.112;24.738;2023-08-08T10:19:11;99520.94;;;26.72;57.40
9889;BME280;4983;42.112;24.738;2023-08-08T10:21:43;99523.72;;;26.44;56.64
9889;BME280;4983;42.112;24.738;2023-08-08T10:24:10;99518.19;;;26.32;57.32
9889;BME280;4983;42.112;24.738;2023-08-08T10:26:51;99522.13;;;25.80;55.36
9889;BME280;4983;42.112;24.738;2023-08-08T10:29:19;99520.19;;;25.81;55.23
9889;BME280;4983;42.112;24.738;2023-08-08T10:31:51;99548.06;;;25.97;58.87
9889;BME280;4983;42.112;24.738;2023-08-08T10:34:21;99543.06;;;25.88;61.58
9889;BME280;4983;42.112;24.738;2023-08-08T10:36:49;99538.47;;;26.05;59.07
9889;BME280;4983;42.112;24.738;2023-08-08T10:39:19;99523.78;;;26.04;57.51
9889;BME280;4983;42.112;24.738;2023-08-08T10:41:47;99547.25;;;26.41;62.45
9889;BME280;4983;42.112;24.738;2023-08-08T10:44:22;99517.97;;;26.34;52.92
9889;BME280;4983;42.112;24.738;2023-08-08T10:46:51;99507.59;;;26.01;53.08
9889;BME280;4983;42.112;24.738;2023-08-08T10:49:20;99523.91;;;25.98;57.19
9889;BME280;4983;42.112;24.738;2023-08-08T10:51:49;99508.72;;;26.73;53.11
9889;BME280;4983;42.112;24.738;2023-08-08T10:54:21;99474.97;;;26.97;47.10
9889;BME280;4983;42.112;24.738;2023-08-08T10:56:54;99484.56;;;26.29;48.91
9889;BME280;4983;42.112;24.738;2023-08-08T10:59:23;99494.84;;;26.56;51.37
9889;BME280;4983;42.112;24.738;2023-08-08T11:01:52;99468.50;;;26.75;46.17
9889;BME280;4983;42.112;24.738;2023-08-08T11:04:24;99469.59;;;26.30;47.50
9889;BME280;4983;42.112;24.738;2023-08-08T11:06:53;99476.56;;;26.77;50.90
9889;BME280;4983;42.112;24.738;2023-08-08T11:09:20;99460.97;;;27.09;48.10
9889;BME280;4983;42.112;24.738;2023-08-08T11:11:47;99451.84;;;27.30;46.60
9889;BME280;4983;42.112;24.738;2023-08-08T11:14:17;99440.31;;;27.05;45.13
9889;BME280;4983;42.112;24.738;2023-08-08T11:16:45;99454.25;;;27.43;48.78
9889;BME280;4983;42.112;24.738;2023-08-08T11:19:13;99446.63;;;27.76;44.33
9889;BME280;4983;42.112;24.738;2023-08-08T11:21:43;99423.84;;;27.79;44.05
9889;BME280;4983;42.112;24.738;2023-08-08T11:24:10;99427.63;;;27.90;45.62
9889;BME280;4983;42.112;24.738;2023-08-08T11:26:40;99411.91;;;28.05;41.64
9889;BME280;4983;42.112;24.738;2023-08-08T11:29:07;99408.19;;;27.73;42.07
9889;BME280;4983;42.112;24.738;2023-08-08T11:31:35;99425.81;;;28.32;46.43
9889;BME280;4983;42.112;24.738;2023-08-08T11:34:04;99401.59;;;28.06;43.72
9889;BME280;4983;42.112;24.738;2023-08-08T11:36:32;99409.06;;;28.53;43.57
9889;BME280;4983;42.112;24.738;2023-08-08T11:39:02;99385.44;;;28.61;39.33
9889;BME280;4983;42.112;24.738;2023-08-08T11:41:34;99384.63;;;28.65;41.83
9889;BME280;4983;42.112;24.738;2023-08-08T11:44:02;99364.16;;;28.45;38.99
9889;BME280;4983;42.112;24.738;2023-08-08T11:46:29;99368.47;;;28.31;39.06
9889;BME280;4983;42.112;24.738;2023-08-08T11:49:02;99388.72;;;28.26;41.04
9889;BME280;4983;42.112;24.738;2023-08-08T11:51:32;99381.47;;;28.52;41.17
9889;BME280;4983;42.112;24.738;2023-08-08T11:54:01;99397.41;;;28.56;43.42
9889;BME280;4983;42.112;24.738;2023-08-08T11:56:29;99345.06;;;28.63;36.80
9889;BME280;4983;42.112;24.738;2023-08-08T11:58:59;99355.78;;;28.81;39.57
9889;BME280;4983;42.112;24.738;2023-08-08T12:01:27;99356.78;;;29.12;37.21
9889;BME280;4983;42.112;24.738;2023-08-08T12:03:56;99339.50;;;28.63;35.40
9889;BME280;4983;42.112;24.738;2023-08-08T12:06:28;99361.53;;;29.06;38.71
9889;BME280;4983;42.112;24.738;2023-08-08T12:08:55;99339.53;;;29.15;36.19
9889;BME280;4983;42.112;24.738;2023-08-08T12:11:23;99334.84;;;29.25;37.39
9889;BME280;4983;42.112;24.738;2023-08-08T12:13:50;99352.78;;;29.49;35.36
9889;BME280;4983;42.112;24.738;2023-08-08T12:16:17;99323.03;;;29.60;36.13
9889;BME280;4983;42.112;24.738;2023-08-08T12:18:44;99327.09;;;29.42;37.39
9889;BME280;4983;42.112;24.738;2023-08-08T12:21:11;99325.94;;;29.28;37.61
9889;BME280;4983;42.112;24.738;2023-08-08T12:23:38;99330.31;;;29.71;36.42
9889;BME280;4983;42.112;24.738;2023-08-08T12:26:06;99314.41;;;29.81;34.77
9889;BME280;4983;42.112;24.738;2023-08-08T12:28:35;99292.31;;;29.70;33.24
9889;BME280;4983;42.112;24.738;2023-08-08T12:31:03;99318.88;;;30.07;35.02
9889;BME280;4983;42.112;24.738;2023-08-08T12:33:30;99289.00;;;29.83;32.48
9889;BME280;4983;42.112;24.738;2023-08-08T12:35:57;99307.72;;;29.92;35.32
9889;BME280;4983;42.112;24.738;2023-08-08T12:38:25;99320.25;;;29.75;37.13
9889;BME280;4983;42.112;24.738;2023-08-08T12:40:52;99314.66;;;29.80;38.22
9889;BME280;4983;42.112;24.738;2023-08-08T12:43:20;99302.44;;;30.21;32.99
9889;BME280;4983;42.112;24.738;2023-08-08T12:45:48;99297.16;;;30.29;36.02
9889;BME280;4983;42.112;24.738;2023-08-08T12:48:15;99289.84;;;29.88;31.95
9889;BME280;4983;42.112;24.738;2023-08-08T12:50:42;99265.56;;;29.79;30.95
9889;BME280;4983;42.112;24.738;2023-08-08T12:53:10;99274.81;;;30.09;32.11
9889;BME280;4983;42.112;24.738;2023-08-08T12:55:38;99280.66;;;30.03;33.02
9889;BME280;4983;42.112;24.738;2023-08-08T12:58:05;99287.94;;;30.19;33.73
9889;BME280;4983;42.112;24.738;2023-08-08T13:00:33;99285.34;;;29.62;34.18
9889;BME280;4983;42.112;24.738;2023-08-08T13:03:03;99289.25;;;29.71;36.50
9889;BME280;4983;42.112;24.738;2023-08-08T13:05:32;99284.72;;;29.40;33.61
9889;BME280;4983;42.112;24.738;2023-08-08T13:08:00;99278.38;;;29.60;33.17
9889;BME280;4983;42.112;24.738;2023-08-08T13:10:27;99284.22;;;29.73;32.39